sensor_id;sensor_type;location;lat;lon;timestamp;temperature;humidity
55091;DHT22;40985;53.180;5.800;2024-01-16T00:01:06;-0.10;99.90
55091;DHT22;40985;53.180;5.800;2024-01-16T00:03:32;-0.20;99.90
55091;DHT22;40985;53.180;5.800;2024-01-16T00:05:58;0.10;99.90
55091;DHT22;40985;53.180;5.800;2024-01-16T00:08:23;-0.30;99.90
55091;DHT22;40985;53.180;5.800;2024-01-16T00:10:50;-0.30;99.90
55091;DHT22;40985;53.180;5.800;2024-01-16T00:13:16;0.10;99.90
55091;DHT22;40985;53.180;5.800;2024-01-16T00:15:43;0.00;99.90
55091;DHT22;40985;53.180;5.800;2024-01-16T00:18:08;-0.40;99.90
55091;DHT22;40985;53.180;5.800;2024-01-16T00:20:34;-0.10;99.90
55091;DHT22;40985;53.180;5.800;2024-01-16T00:23:00;-0.40;99.90
55091;DHT22;40985;53.180;5.800;2024-01-16T00:25:26;-0.30;99.90
55091;DHT22;40985;53.180;5.800;2024-01-16T00:27:52;-0.10;99.90
55091;DHT22;40985;53.180;5.800;2024-01-16T00:30:18;-0.40;99.90
55091;DHT22;40985;53.180;5.800;2024-01-16T00:32:44;-0.30;99.90
55091;DHT22;40985;53.180;5.800;2024-01-16T00:35:09;-0.20;99.90
55091;DHT22;40985;53.180;5.800;2024-01-16T00:37:38;-0.60;99.90
55091;DHT22;40985;53.180;5.800;2024-01-16T00:40:05;-0.40;99.90
55091;DHT22;40985;53.180;5.800;2024-01-16T00:42:34;-0.20;99.90
55091;DHT22;40985;53.180;5.800;2024-01-16T00:45:00;-0.50;99.90
55091;DHT22;40985;53.180;5.800;2024-01-16T00:47:26;-0.20;99.90
55091;DHT22;40985;53.180;5.800;2024-01-16T00:49:52;-0.30;99.90
55091;DHT22;40985;53.180;5.800;2024-01-16T00:52:18;-0.30;99.90
55091;DHT22;40985;53.180;5.800;2024-01-16T00:54:44;-0.50;99.90
55091;DHT22;40985;53.180;5.800;2024-01-16T00:57:10;-0.40;99.90
55091;DHT22;40985;53.180;5.800;2024-01-16T00:59:36;-0.40;99.90
55091;DHT22;40985;53.180;5.800;2024-01-16T01:02:02;-0.50;99.90
55091;DHT22;40985;53.180;5.800;2024-01-16T01:04:29;-0.50;99.90
55091;DHT22;40985;53.180;5.800;2024-01-16T01:06:55;-0.20;99.90
55091;DHT22;40985;53.180;5.800;2024-01-16T01:09:21;-0.10;99.90
55091;DHT22;40985;53.180;5.800;2024-01-16T01:11:46;-0.40;99.90
55091;DHT22;40985;53.180;5.800;2024-01-16T01:14:12;-0.10;99.90
55091;DHT22;40985;53.180;5.800;2024-01-16T01:16:38;-0.30;99.90
55091;DHT22;40985;53.180;5.800;2024-01-16T01:19:04;-0.30;99.90
55091;DHT22;40985;53.180;5.800;2024-01-16T01:21:29;-0.20;99.90
55091;DHT22;40985;53.180;5.800;2024-01-16T01:23:55;0.10;99.90
55091;DHT22;40985;53.180;5.800;2024-01-16T01:26:21;-0.10;99.90
55091;DHT22;40985;53.180;5.800;2024-01-16T01:28:46;-0.20;99.90
55091;DHT22;40985;53.180;5.800;2024-01-16T01:31:12;0.00;99.90
55091;DHT22;40985;53.180;5.800;2024-01-16T01:33:39;0.00;99.90
55091;DHT22;40985;53.180;5.800;2024-01-16T01:36:05;0.00;99.90
55091;DHT22;40985;53.180;5.800;2024-01-16T01:38:31;0.00;99.90
55091;DHT22;40985;53.180;5.800;2024-01-16T01:40:57;0.20;99.90
55091;DHT22;40985;53.180;5.800;2024-01-16T01:43:24;0.30;99.90
55091;DHT22;40985;53.180;5.800;2024-01-16T01:48:33;0.30;99.90
55091;DHT22;40985;53.180;5.800;2024-01-16T01:51:00;0.50;99.90
55091;DHT22;40985;53.180;5.800;2024-01-16T01:53:27;0.60;99.90
55091;DHT22;40985;53.180;5.800;2024-01-16T01:55:54;0.50;99.90
55091;DHT22;40985;53.180;5.800;2024-01-16T01:58:20;0.50;99.90
55091;DHT22;40985;53.180;5.800;2024-01-16T02:00:46;0.40;99.90
55091;DHT22;40985;53.180;5.800;2024-01-16T02:03:13;0.40;99.90
55091;DHT22;40985;53.180;5.800;2024-01-16T02:05:39;0.40;99.90
55091;DHT22;40985;53.180;5.800;2024-01-16T02:08:05;0.40;99.90
55091;DHT22;40985;53.180;5.800;2024-01-16T02:10:31;0.30;99.90
55091;DHT22;40985;53.180;5.800;2024-01-16T02:12:58;0.20;99.90
55091;DHT22;40985;53.180;5.800;2024-01-16T02:15:24;0.10;99.90
55091;DHT22;40985;53.180;5.800;2024-01-16T02:17:49;0.10;99.90
55091;DHT22;40985;53.180;5.800;2024-01-16T02:20:16;0.10;99.90
55091;DHT22;40985;53.180;5.800;2024-01-16T02:22:45;0.00;99.90
55091;DHT22;40985;53.180;5.800;2024-01-16T02:25:13;0.00;99.90
55091;DHT22;40985;53.180;5.800;2024-01-16T02:27:39;-0.10;99.90
55091;DHT22;40985;53.180;5.800;2024-01-16T02:30:05;-0.10;99.90
55091;DHT22;40985;53.180;5.800;2024-01-16T02:32:31;-0.10;99.90
55091;DHT22;40985;53.180;5.800;2024-01-16T02:34:58;-0.10;99.90
55091;DHT22;40985;53.180;5.800;2024-01-16T02:37:24;0.00;99.90
55091;DHT22;40985;53.180;5.800;2024-01-16T02:39:50;-0.10;99.90
55091;DHT22;40985;53.180;5.800;2024-01-16T02:42:15;0.00;99.90
55091;DHT22;40985;53.180;5.800;2024-01-16T02:44:41;0.10;99.90
55091;DHT22;40985;53.180;5.800;2024-01-16T02:47:07;0.00;99.90
55091;DHT22;40985;53.180;5.800;2024-01-16T02:49:33;0.10;99.90
55091;DHT22;40985;53.180;5.800;2024-01-16T02:51:58;0.10;99.90
55091;DHT22;40985;53.180;5.800;2024-01-16T02:54:24;0.00;99.90
55091;DHT22;40985;53.180;5.800;2024-01-16T02:56:50;0.10;99.90
55091;DHT22;40985;53.180;5.800;2024-01-16T02:59:15;0.00;99.90
55091;DHT22;40985;53.180;5.800;2024-01-16T03:01:42;0.00;99.90
55091;DHT22;40985;53.180;5.800;2024-01-16T03:04:08;-0.10;99.90
55091;DHT22;40985;53.180;5.800;2024-01-16T03:06:34;0.00;99.90
55091;DHT22;40985;53.180;5.800;2024-01-16T03:09:00;0.00;99.90
55091;DHT22;40985;53.180;5.800;2024-01-16T03:11:26;0.20;99.90
55091;DHT22;40985;53.180;5.800;2024-01-16T03:13:52;0.20;99.90
55091;DHT22;40985;53.180;5.800;2024-01-16T03:16:20;0.30;99.90
55091;DHT22;40985;53.180;5.800;2024-01-16T03:18:46;0.40;99.90
55091;DHT22;40985;53.180;5.800;2024-01-16T03:21:13;0.30;99.90
55091;DHT22;40985;53.180;5.800;2024-01-16T03:23:39;0.10;99.90
55091;DHT22;40985;53.180;5.800;2024-01-16T03:26:04;0.00;99.90
55091;DHT22;40985;53.180;5.800;2024-01-16T03:28:30;0.10;99.90
55091;DHT22;40985;53.180;5.800;2024-01-16T03:30:56;-0.10;99.90
55091;DHT22;40985;53.180;5.800;2024-01-16T03:33:21;-0.10;99.90
55091;DHT22;40985;53.180;5.800;2024-01-16T03:35:47;0.00;99.90
55091;DHT22;40985;53.180;5.800;2024-01-16T03:38:13;-0.10;99.90
55091;DHT22;40985;53.180;5.800;2024-01-16T03:40:38;0.00;99.90
55091;DHT22;40985;53.180;5.800;2024-01-16T03:43:04;-0.20;99.90
55091;DHT22;40985;53.180;5.800;2024-01-16T03:45:33;-0.40;99.90
55091;DHT22;40985;53.180;5.800;2024-01-16T03:47:59;-0.40;99.90
55091;DHT22;40985;53.180;5.800;2024-01-16T03:50:24;-0.30;99.90
55091;DHT22;40985;53.180;5.800;2024-01-16T03:52:50;-0.20;99.90
55091;DHT22;40985;53.180;5.800;2024-01-16T03:55:16;-0.40;99.90
55091;DHT22;40985;53.180;5.800;2024-01-16T03:57:42;-0.50;99.90
55091;DHT22;40985;53.180;5.800;2024-01-16T04:00:08;-0.40;99.90
55091;DHT22;40985;53.180;5.800;2024-01-16T04:02:38;-0.40;99.90
55091;DHT22;40985;53.180;5.800;2024-01-16T04:05:04;-0.20;99.90
55091;DHT22;40985;53.180;5.800;2024-01-16T04:07:31;-0.20;99.90
55091;DHT22;40985;53.180;5.800;2024-01-16T04:09:56;-0.40;99.90
55091;DHT22;40985;53.180;5.800;2024-01-16T04:12:22;-0.30;99.90
55091;DHT22;40985;53.180;5.800;2024-01-16T04:14:48;-0.40;99.90
55091;DHT22;40985;53.180;5.800;2024-01-16T04:17:13;-0.30;99.90
55091;DHT22;40985;53.180;5.800;2024-01-16T04:19:39;-0.30;99.90
55091;DHT22;40985;53.180;5.800;2024-01-16T04:22:05;-0.30;99.90
55091;DHT22;40985;53.180;5.800;2024-01-16T04:24:31;-0.20;99.90
55091;DHT22;40985;53.180;5.800;2024-01-16T04:26:57;-0.10;99.90
55091;DHT22;40985;53.180;5.800;2024-01-16T04:29:22;-0.20;99.90
55091;DHT22;40985;53.180;5.800;2024-01-16T04:31:48;-0.20;99.90
55091;DHT22;40985;53.180;5.800;2024-01-16T04:34:14;0.00;99.90
55091;DHT22;40985;53.180;5.800;2024-01-16T04:36:39;-0.10;99.90
55091;DHT22;40985;53.180;5.800;2024-01-16T04:39:05;0.10;99.90
55091;DHT22;40985;53.180;5.800;2024-01-16T04:41:31;0.00;99.90
55091;DHT22;40985;53.180;5.800;2024-01-16T04:43:56;0.20;99.90
55091;DHT22;40985;53.180;5.800;2024-01-16T04:46:22;0.20;99.90
55091;DHT22;40985;53.180;5.800;2024-01-16T04:48:48;0.10;99.90
55091;DHT22;40985;53.180;5.800;2024-01-16T04:51:13;0.20;99.90
55091;DHT22;40985;53.180;5.800;2024-01-16T04:53:39;0.10;99.90
55091;DHT22;40985;53.180;5.800;2024-01-16T04:56:06;0.10;99.90
55091;DHT22;40985;53.180;5.800;2024-01-16T04:58:32;0.20;99.90
55091;DHT22;40985;53.180;5.800;2024-01-16T05:00:58;0.10;99.90
55091;DHT22;40985;53.180;5.800;2024-01-16T05:03:24;0.00;99.90
55091;DHT22;40985;53.180;5.800;2024-01-16T05:05:49;-0.10;99.90
55091;DHT22;40985;53.180;5.800;2024-01-16T05:08:15;0.20;99.90
55091;DHT22;40985;53.180;5.800;2024-01-16T05:10:41;0.20;99.90
55091;DHT22;40985;53.180;5.800;2024-01-16T05:13:06;0.10;99.90
55091;DHT22;40985;53.180;5.800;2024-01-16T05:15:32;0.20;99.90
55091;DHT22;40985;53.180;5.800;2024-01-16T05:17:58;0.10;99.90
55091;DHT22;40985;53.180;5.800;2024-01-16T05:20:23;0.20;99.90
55091;DHT22;40985;53.180;5.800;2024-01-16T05:22:49;0.00;99.90
55091;DHT22;40985;53.180;5.800;2024-01-16T05:25:14;0.10;99.90
55091;DHT22;40985;53.180;5.800;2024-01-16T05:27:42;0.10;99.90
55091;DHT22;40985;53.180;5.800;2024-01-16T05:30:09;-0.10;99.90
55091;DHT22;40985;53.180;5.800;2024-01-16T05:32:35;-0.20;99.90
55091;DHT22;40985;53.180;5.800;2024-01-16T05:35:01;-0.10;99.90
55091;DHT22;40985;53.180;5.800;2024-01-16T05:37:27;-0.30;99.90
55091;DHT22;40985;53.180;5.800;2024-01-16T05:39:55;-0.30;99.90
55091;DHT22;40985;53.180;5.800;2024-01-16T05:42:20;-0.40;99.90
55091;DHT22;40985;53.180;5.800;2024-01-16T05:44:46;-0.40;99.90
55091;DHT22;40985;53.180;5.800;2024-01-16T05:47:12;-0.30;99.90
55091;DHT22;40985;53.180;5.800;2024-01-16T05:49:38;-0.30;99.90
55091;DHT22;40985;53.180;5.800;2024-01-16T05:52:03;-0.30;99.90
55091;DHT22;40985;53.180;5.800;2024-01-16T05:54:29;-0.40;99.90
55091;DHT22;40985;53.180;5.800;2024-01-16T05:56:55;-0.40;99.90
55091;DHT22;40985;53.180;5.800;2024-01-16T05:59:20;-0.50;99.90
55091;DHT22;40985;53.180;5.800;2024-01-16T06:01:46;-0.40;99.90
55091;DHT22;40985;53.180;5.800;2024-01-16T06:04:12;-0.30;99.90
55091;DHT22;40985;53.180;5.800;2024-01-16T06:06:37;-0.40;99.90
55091;DHT22;40985;53.180;5.800;2024-01-16T06:09:03;-0.40;99.90
55091;DHT22;40985;53.180;5.800;2024-01-16T06:11:33;-0.20;99.90
55091;DHT22;40985;53.180;5.800;2024-01-16T06:14:00;-0.20;99.90
55091;DHT22;40985;53.180;5.800;2024-01-16T06:16:26;-0.10;99.90
55091;DHT22;40985;53.180;5.800;2024-01-16T06:18:51;-0.10;99.90
55091;DHT22;40985;53.180;5.800;2024-01-16T06:21:17;0.00;99.90
55091;DHT22;40985;53.180;5.800;2024-01-16T06:23:43;-0.10;99.90
55091;DHT22;40985;53.180;5.800;2024-01-16T06:26:09;0.20;99.90
55091;DHT22;40985;53.180;5.800;2024-01-16T06:28:35;-0.10;99.90
55091;DHT22;40985;53.180;5.800;2024-01-16T06:31:00;0.20;99.90
55091;DHT22;40985;53.180;5.800;2024-01-16T06:33:26;0.00;99.90
55091;DHT22;40985;53.180;5.800;2024-01-16T06:35:54;-0.10;99.90
55091;DHT22;40985;53.180;5.800;2024-01-16T06:38:20;0.00;99.90
55091;DHT22;40985;53.180;5.800;2024-01-16T06:40:46;0.10;99.90
55091;DHT22;40985;53.180;5.800;2024-01-16T06:43:14;0.10;99.90
55091;DHT22;40985;53.180;5.800;2024-01-16T06:45:43;-0.20;99.90
55091;DHT22;40985;53.180;5.800;2024-01-16T06:48:10;-0.20;99.90
55091;DHT22;40985;53.180;5.800;2024-01-16T06:50:35;0.00;99.90
55091;DHT22;40985;53.180;5.800;2024-01-16T06:53:01;0.00;99.90
55091;DHT22;40985;53.180;5.800;2024-01-16T06:55:27;-0.30;99.90
55091;DHT22;40985;53.180;5.800;2024-01-16T06:57:53;-0.30;99.90
55091;DHT22;40985;53.180;5.800;2024-01-16T07:00:19;0.00;99.90
55091;DHT22;40985;53.180;5.800;2024-01-16T07:02:45;-0.30;99.90
55091;DHT22;40985;53.180;5.800;2024-01-16T07:05:11;0.00;99.90
55091;DHT22;40985;53.180;5.800;2024-01-16T07:07:37;-0.10;99.90
55091;DHT22;40985;53.180;5.800;2024-01-16T07:10:04;-0.20;99.90
55091;DHT22;40985;53.180;5.800;2024-01-16T07:12:29;-0.40;99.90
55091;DHT22;40985;53.180;5.800;2024-01-16T07:14:55;-0.40;99.90
55091;DHT22;40985;53.180;5.800;2024-01-16T07:17:21;-0.50;99.90
55091;DHT22;40985;53.180;5.800;2024-01-16T07:19:46;-0.50;99.90
55091;DHT22;40985;53.180;5.800;2024-01-16T07:22:12;-0.50;99.90
55091;DHT22;40985;53.180;5.800;2024-01-16T07:24:39;-0.20;99.90
55091;DHT22;40985;53.180;5.800;2024-01-16T07:27:05;-0.50;99.90
55091;DHT22;40985;53.180;5.800;2024-01-16T07:29:30;-0.30;99.90
55091;DHT22;40985;53.180;5.800;2024-01-16T07:31:56;-0.60;99.90
55091;DHT22;40985;53.180;5.800;2024-01-16T07:34:22;-0.50;99.90
55091;DHT22;40985;53.180;5.800;2024-01-16T07:36:47;-0.20;99.90
55091;DHT22;40985;53.180;5.800;2024-01-16T07:39:13;-0.40;99.90
55091;DHT22;40985;53.180;5.800;2024-01-16T07:41:40;0.20;99.90
55091;DHT22;40985;53.180;5.800;2024-01-16T07:44:06;0.00;99.90
55091;DHT22;40985;53.180;5.800;2024-01-16T07:46:31;0.20;99.90
55091;DHT22;40985;53.180;5.800;2024-01-16T07:48:57;-0.20;99.90
55091;DHT22;40985;53.180;5.800;2024-01-16T07:51:23;0.40;99.90
55091;DHT22;40985;53.180;5.800;2024-01-16T07:53:57;0.30;99.90
55091;DHT22;40985;53.180;5.800;2024-01-16T07:56:29;0.50;99.90
55091;DHT22;40985;53.180;5.800;2024-01-16T07:58:55;-0.10;99.90
55091;DHT22;40985;53.180;5.800;2024-01-16T08:01:20;0.10;99.90
55091;DHT22;40985;53.180;5.800;2024-01-16T08:03:46;0.50;99.90
55091;DHT22;40985;53.180;5.800;2024-01-16T08:06:13;0.30;99.90
55091;DHT22;40985;53.180;5.800;2024-01-16T08:08:38;0.60;99.90
55091;DHT22;40985;53.180;5.800;2024-01-16T08:11:04;0.00;99.90
55091;DHT22;40985;53.180;5.800;2024-01-16T08:13:30;0.10;99.90
55091;DHT22;40985;53.180;5.800;2024-01-16T08:15:55;0.00;99.90
55091;DHT22;40985;53.180;5.800;2024-01-16T08:18:21;0.30;99.90
55091;DHT22;40985;53.180;5.800;2024-01-16T08:20:47;0.60;99.90
55091;DHT22;40985;53.180;5.800;2024-01-16T08:23:12;0.40;99.90
55091;DHT22;40985;53.180;5.800;2024-01-16T08:25:38;-0.20;99.90
55091;DHT22;40985;53.180;5.800;2024-01-16T08:28:04;0.40;99.90
55091;DHT22;40985;53.180;5.800;2024-01-16T08:30:30;-0.20;99.90
55091;DHT22;40985;53.180;5.800;2024-01-16T08:32:56;0.30;99.90
55091;DHT22;40985;53.180;5.800;2024-01-16T08:35:21;0.40;99.90
55091;DHT22;40985;53.180;5.800;2024-01-16T08:37:48;0.50;99.90
55091;DHT22;40985;53.180;5.800;2024-01-16T08:40:14;-0.20;99.90
55091;DHT22;40985;53.180;5.800;2024-01-16T08:42:40;-0.20;99.90
55091;DHT22;40985;53.180;5.800;2024-01-16T08:45:06;-0.50;99.90
55091;DHT22;40985;53.180;5.800;2024-01-16T08:47:32;0.40;99.90
55091;DHT22;40985;53.180;5.800;2024-01-16T08:49:57;0.20;99.90
55091;DHT22;40985;53.180;5.800;2024-01-16T08:52:23;-0.20;99.90
55091;DHT22;40985;53.180;5.800;2024-01-16T08:54:49;0.30;99.90
55091;DHT22;40985;53.180;5.800;2024-01-16T08:57:15;-0.10;99.90
55091;DHT22;40985;53.180;5.800;2024-01-16T08:59:41;0.10;99.90
55091;DHT22;40985;53.180;5.800;2024-01-16T09:02:07;-0.20;99.90
55091;DHT22;40985;53.180;5.800;2024-01-16T09:04:33;0.60;99.90
55091;DHT22;40985;53.180;5.800;2024-01-16T09:06:59;0.60;99.90
55091;DHT22;40985;53.180;5.800;2024-01-16T09:09:25;0.20;99.90
55091;DHT22;40985;53.180;5.800;2024-01-16T09:11:50;0.60;99.90
55091;DHT22;40985;53.180;5.800;2024-01-16T09:14:16;0.80;99.90
55091;DHT22;40985;53.180;5.800;2024-01-16T09:16:42;0.30;99.90
55091;DHT22;40985;53.180;5.800;2024-01-16T09:19:08;0.20;99.90
55091;DHT22;40985;53.180;5.800;2024-01-16T09:21:35;0.00;99.90
55091;DHT22;40985;53.180;5.800;2024-01-16T09:24:00;0.80;99.90
55091;DHT22;40985;53.180;5.800;2024-01-16T09:26:26;0.00;99.90
55091;DHT22;40985;53.180;5.800;2024-01-16T09:28:52;0.80;99.90
55091;DHT22;40985;53.180;5.800;2024-01-16T09:31:17;0.80;99.90
55091;DHT22;40985;53.180;5.800;2024-01-16T09:33:43;0.70;99.90
55091;DHT22;40985;53.180;5.800;2024-01-16T09:36:09;0.80;99.90
55091;DHT22;40985;53.180;5.800;2024-01-16T09:38:36;0.80;99.90
55091;DHT22;40985;53.180;5.800;2024-01-16T09:41:01;0.80;99.90
55091;DHT22;40985;53.180;5.800;2024-01-16T09:43:28;-0.10;99.90
55091;DHT22;40985;53.180;5.800;2024-01-16T09:45:56;0.00;99.90
55091;DHT22;40985;53.180;5.800;2024-01-16T09:48:21;0.40;99.90
55091;DHT22;40985;53.180;5.800;2024-01-16T09:50:47;-0.10;99.90
55091;DHT22;40985;53.180;5.800;2024-01-16T09:53:13;0.90;99.90
55091;DHT22;40985;53.180;5.800;2024-01-16T09:55:39;0.80;99.90
55091;DHT22;40985;53.180;5.800;2024-01-16T09:58:05;0.20;99.90
55091;DHT22;40985;53.180;5.800;2024-01-16T10:00:35;0.20;99.90
55091;DHT22;40985;53.180;5.800;2024-01-16T10:03:01;0.60;99.90
55091;DHT22;40985;53.180;5.800;2024-01-16T10:05:29;1.10;99.90
55091;DHT22;40985;53.180;5.800;2024-01-16T10:07:56;0.30;99.90
55091;DHT22;40985;53.180;5.800;2024-01-16T10:10:22;0.60;99.90
55091;DHT22;40985;53.180;5.800;2024-01-16T10:12:49;0.10;99.90
55091;DHT22;40985;53.180;5.800;2024-01-16T10:15:16;0.70;99.90
55091;DHT22;40985;53.180;5.800;2024-01-16T10:17:44;0.20;99.90
55091;DHT22;40985;53.180;5.800;2024-01-16T10:20:11;1.20;99.90
55091;DHT22;40985;53.180;5.800;2024-01-16T10:22:52;1.00;99.90
55091;DHT22;40985;53.180;5.800;2024-01-16T10:25:18;0.20;99.90
55091;DHT22;40985;53.180;5.800;2024-01-16T10:27:47;0.50;99.90
55091;DHT22;40985;53.180;5.800;2024-01-16T10:30:13;1.30;99.90
55091;DHT22;40985;53.180;5.800;2024-01-16T10:32:43;1.20;99.90
55091;DHT22;40985;53.180;5.800;2024-01-16T10:35:10;0.60;99.90
55091;DHT22;40985;53.180;5.800;2024-01-16T10:37:52;0.30;99.90
55091;DHT22;40985;53.180;5.800;2024-01-16T10:40:22;1.30;99.90
55091;DHT22;40985;53.180;5.800;2024-01-16T10:43:17;1.20;99.90
55091;DHT22;40985;53.180;5.800;2024-01-16T10:45:43;0.80;99.90
55091;DHT22;40985;53.180;5.800;2024-01-16T10:48:08;1.20;99.90
55091;DHT22;40985;53.180;5.800;2024-01-16T10:50:36;1.20;99.90
55091;DHT22;40985;53.180;5.800;2024-01-16T10:53:07;1.00;99.90
55091;DHT22;40985;53.180;5.800;2024-01-16T10:58:13;0.90;99.90
55091;DHT22;40985;53.180;5.800;2024-01-16T11:00:39;0.80;99.90
55091;DHT22;40985;53.180;5.800;2024-01-16T11:03:07;0.20;99.90
55091;DHT22;40985;53.180;5.800;2024-01-16T11:05:33;0.10;99.90
55091;DHT22;40985;53.180;5.800;2024-01-16T11:08:00;0.20;99.90
55091;DHT22;40985;53.180;5.800;2024-01-16T11:10:32;0.10;99.90
55091;DHT22;40985;53.180;5.800;2024-01-16T11:13:01;0.20;99.90
55091;DHT22;40985;53.180;5.800;2024-01-16T11:15:28;1.00;99.90
55091;DHT22;40985;53.180;5.800;2024-01-16T11:17:55;0.50;99.90
55091;DHT22;40985;53.180;5.800;2024-01-16T11:20:22;0.90;99.90
55091;DHT22;40985;53.180;5.800;2024-01-16T11:22:49;0.60;99.90
55091;DHT22;40985;53.180;5.800;2024-01-16T11:25:17;0.20;99.90
55091;DHT22;40985;53.180;5.800;2024-01-16T11:27:45;0.60;99.90
55091;DHT22;40985;53.180;5.800;2024-01-16T11:30:29;0.90;99.90
55091;DHT22;40985;53.180;5.800;2024-01-16T11:32:55;1.10;99.90
55091;DHT22;40985;53.180;5.800;2024-01-16T11:35:35;1.10;99.90
55091;DHT22;40985;53.180;5.800;2024-01-16T11:38:08;1.00;99.90
55091;DHT22;40985;53.180;5.800;2024-01-16T11:40:35;1.00;99.90
55091;DHT22;40985;53.180;5.800;2024-01-16T11:46:07;1.20;99.90
55091;DHT22;40985;53.180;5.800;2024-01-16T11:48:34;1.50;99.90
55091;DHT22;40985;53.180;5.800;2024-01-16T11:51:00;1.50;99.90
55091;DHT22;40985;53.180;5.800;2024-01-16T11:53:38;0.90;99.90
55091;DHT22;40985;53.180;5.800;2024-01-16T12:01:45;1.50;99.90
55091;DHT22;40985;53.180;5.800;2024-01-16T12:04:10;1.60;99.90
55091;DHT22;40985;53.180;5.800;2024-01-16T12:06:37;1.80;99.90
55091;DHT22;40985;53.180;5.800;2024-01-16T12:09:16;1.80;99.90
55091;DHT22;40985;53.180;5.800;2024-01-16T12:11:59;2.00;99.90
55091;DHT22;40985;53.180;5.800;2024-01-16T12:14:26;1.50;99.90
55091;DHT22;40985;53.180;5.800;2024-01-16T12:16:52;1.70;99.90
55091;DHT22;40985;53.180;5.800;2024-01-16T12:19:18;1.80;99.90
55091;DHT22;40985;53.180;5.800;2024-01-16T12:21:45;1.70;99.90
55091;DHT22;40985;53.180;5.800;2024-01-16T12:24:11;1.60;99.90
55091;DHT22;40985;53.180;5.800;2024-01-16T12:26:37;1.30;99.90
55091;DHT22;40985;53.180;5.800;2024-01-16T12:29:03;1.30;99.90
55091;DHT22;40985;53.180;5.800;2024-01-16T12:31:29;1.10;99.90
55091;DHT22;40985;53.180;5.800;2024-01-16T12:34:08;1.30;99.90
55091;DHT22;40985;53.180;5.800;2024-01-16T12:36:34;1.10;99.90
55091;DHT22;40985;53.180;5.800;2024-01-16T12:39:00;1.40;99.90
55091;DHT22;40985;53.180;5.800;2024-01-16T12:41:41;1.20;99.90
55091;DHT22;40985;53.180;5.800;2024-01-16T12:44:08;1.30;99.90
55091;DHT22;40985;53.180;5.800;2024-01-16T12:46:34;1.40;99.90
55091;DHT22;40985;53.180;5.800;2024-01-16T12:49:03;1.60;99.90
55091;DHT22;40985;53.180;5.800;2024-01-16T12:51:31;1.50;99.90
55091;DHT22;40985;53.180;5.800;2024-01-16T12:54:17;2.00;99.90
55091;DHT22;40985;53.180;5.800;2024-01-16T12:56:44;1.80;99.90
55091;DHT22;40985;53.180;5.800;2024-01-16T12:59:11;1.80;99.90
55091;DHT22;40985;53.180;5.800;2024-01-16T13:01:40;1.80;99.90
55091;DHT22;40985;53.180;5.800;2024-01-16T13:04:07;2.20;99.90
55091;DHT22;40985;53.180;5.800;2024-01-16T13:06:33;2.10;99.90
55091;DHT22;40985;53.180;5.800;2024-01-16T13:09:07;2.40;99.90
55091;DHT22;40985;53.180;5.800;2024-01-16T13:11:50;2.40;99.90
55091;DHT22;40985;53.180;5.800;2024-01-16T13:14:17;2.40;99.90
55091;DHT22;40985;53.180;5.800;2024-01-16T13:16:43;2.40;99.90
55091;DHT22;40985;53.180;5.800;2024-01-16T13:19:09;2.60;99.90
55091;DHT22;40985;53.180;5.800;2024-01-16T13:21:37;2.70;99.90
55091;DHT22;40985;53.180;5.800;2024-01-16T13:24:06;2.50;99.90
55091;DHT22;40985;53.180;5.800;2024-01-16T13:26:32;2.50;99.90
55091;DHT22;40985;53.180;5.800;2024-01-16T13:28:58;2.60;99.90
55091;DHT22;40985;53.180;5.800;2024-01-16T13:31:24;2.70;99.90
55091;DHT22;40985;53.180;5.800;2024-01-16T13:33:49;2.50;99.90
55091;DHT22;40985;53.180;5.800;2024-01-16T13:36:15;2.30;99.90
55091;DHT22;40985;53.180;5.800;2024-01-16T13:38:41;2.10;99.90
55091;DHT22;40985;53.180;5.800;2024-01-16T13:41:07;1.90;99.90
55091;DHT22;40985;53.180;5.800;2024-01-16T13:43:33;1.90;99.90
55091;DHT22;40985;53.180;5.800;2024-01-16T13:45:58;2.00;99.90
55091;DHT22;40985;53.180;5.800;2024-01-16T13:48:24;2.10;99.90
55091;DHT22;40985;53.180;5.800;2024-01-16T13:50:50;2.20;99.90
55091;DHT22;40985;53.180;5.800;2024-01-16T13:53:16;2.10;99.90
55091;DHT22;40985;53.180;5.800;2024-01-16T13:55:42;2.10;99.90
55091;DHT22;40985;53.180;5.800;2024-01-16T13:58:08;2.20;99.90
55091;DHT22;40985;53.180;5.800;2024-01-16T14:00:34;2.30;99.90
55091;DHT22;40985;53.180;5.800;2024-01-16T14:02:59;2.20;99.90
55091;DHT22;40985;53.180;5.800;2024-01-16T14:05:25;2.20;99.90
55091;DHT22;40985;53.180;5.800;2024-01-16T14:07:52;2.30;99.90
55091;DHT22;40985;53.180;5.800;2024-01-16T14:10:19;2.10;99.90
55091;DHT22;40985;53.180;5.800;2024-01-16T14:12:48;2.30;99.90
55091;DHT22;40985;53.180;5.800;2024-01-16T14:15:15;2.20;99.90
55091;DHT22;40985;53.180;5.800;2024-01-16T14:17:46;2.20;99.90
55091;DHT22;40985;53.180;5.800;2024-01-16T14:20:13;2.20;99.90
55091;DHT22;40985;53.180;5.800;2024-01-16T14:22:39;2.20;99.90
55091;DHT22;40985;53.180;5.800;2024-01-16T14:25:12;2.10;99.90
55091;DHT22;40985;53.180;5.800;2024-01-16T14:27:42;2.10;99.90
55091;DHT22;40985;53.180;5.800;2024-01-16T14:30:14;2.00;99.90
55091;DHT22;40985;53.180;5.800;2024-01-16T14:32:41;1.90;99.90
55091;DHT22;40985;53.180;5.800;2024-01-16T14:35:08;1.90;99.90
55091;DHT22;40985;53.180;5.800;2024-01-16T14:37:35;1.80;99.90
55091;DHT22;40985;53.180;5.800;2024-01-16T14:40:03;1.80;99.90
55091;DHT22;40985;53.180;5.800;2024-01-16T14:42:32;1.80;99.90
55091;DHT22;40985;53.180;5.800;2024-01-16T14:44:59;1.70;99.90
55091;DHT22;40985;53.180;5.800;2024-01-16T14:47:25;1.70;99.90
55091;DHT22;40985;53.180;5.800;2024-01-16T14:49:51;1.70;99.90
55091;DHT22;40985;53.180;5.800;2024-01-16T14:52:20;1.60;99.90
55091;DHT22;40985;53.180;5.800;2024-01-16T14:54:46;1.60;99.90
55091;DHT22;40985;53.180;5.800;2024-01-16T14:57:11;1.60;99.90
55091;DHT22;40985;53.180;5.800;2024-01-16T14:59:37;1.60;99.90
55091;DHT22;40985;53.180;5.800;2024-01-16T15:02:03;1.60;99.90
55091;DHT22;40985;53.180;5.800;2024-01-16T15:04:39;1.50;99.90
55091;DHT22;40985;53.180;5.800;2024-01-16T15:07:05;1.50;99.90
55091;DHT22;40985;53.180;5.800;2024-01-16T15:09:31;1.40;99.90
55091;DHT22;40985;53.180;5.800;2024-01-16T15:12:01;1.40;99.90
55091;DHT22;40985;53.180;5.800;2024-01-16T15:14:27;1.30;99.90
55091;DHT22;40985;53.180;5.800;2024-01-16T15:16:52;1.20;99.90
55091;DHT22;40985;53.180;5.800;2024-01-16T15:19:18;1.20;99.90
55091;DHT22;40985;53.180;5.800;2024-01-16T15:21:43;1.20;99.90
55091;DHT22;40985;53.180;5.800;2024-01-16T15:24:09;1.00;99.90
55091;DHT22;40985;53.180;5.800;2024-01-16T15:26:38;1.00;99.90
55091;DHT22;40985;53.180;5.800;2024-01-16T15:29:04;0.90;99.90
55091;DHT22;40985;53.180;5.800;2024-01-16T15:31:31;0.90;99.90
55091;DHT22;40985;53.180;5.800;2024-01-16T15:33:57;0.80;99.90
55091;DHT22;40985;53.180;5.800;2024-01-16T15:36:23;0.70;99.90
55091;DHT22;40985;53.180;5.800;2024-01-16T15:38:48;0.70;99.90
55091;DHT22;40985;53.180;5.800;2024-01-16T15:41:14;0.70;99.90
55091;DHT22;40985;53.180;5.800;2024-01-16T15:43:40;0.60;99.90
55091;DHT22;40985;53.180;5.800;2024-01-16T15:46:05;0.50;99.90
55091;DHT22;40985;53.180;5.800;2024-01-16T15:48:31;0.50;99.90
55091;DHT22;40985;53.180;5.800;2024-01-16T15:50:59;0.50;99.90
55091;DHT22;40985;53.180;5.800;2024-01-16T15:53:25;0.30;99.90